Quamba, Minnesota
Current Conditions -  °F | °C
As of 2:05 PM on Saturday 20 Dec 2014 (Local Time) from KJMR Reporting Station
Overcast Overcast  
Wind Chill: -5°   Ceiling: 1000
Heat Index:   Visibility: 5mi
Dew Point: -2°   Wind: 12mph
Humidity: 87%   Direction: 200°SSW
Pressure: 30.1"   Gusts: NA
Location:  45.9652°N, 93.2874°W
Report Text: KJMR 202005Z AUTO 20010KT 5SM OVC010 00/M02 A3010 RMK AO2
Loading
Personal Weather Stations






























Interactive Weather Map New forecast layout! Learn more

10-Day Weather Forecast

Advertisements
Track Severe Weather on mobile